sensor_id;sensor_type;location;lat;lon;timestamp;pressure;altitude;pressure_sealevel;temperature;humidity
47983;BME280;33751;50.816;-1.214;2022-11-11T00:01:30;102415.08;;;18.42;100.00
47983;BME280;33751;50.816;-1.214;2022-11-11T00:03:56;102417.17;;;22.09;100.00
47983;BME280;33751;50.816;-1.214;2022-11-11T00:06:22;102415.85;;;21.55;100.00
47983;BME280;33751;50.816;-1.214;2022-11-11T00:08:49;102414.17;;;20.94;100.00
47983;BME280;33751;50.816;-1.214;2022-11-11T00:11:16;102415.65;;;20.92;100.00
47983;BME280;33751;50.816;-1.214;2022-11-11T00:13:43;102412.57;;;20.23;100.00
47983;BME280;33751;50.816;-1.214;2022-11-11T00:16:12;102415.73;;;20.44;100.00
47983;BME280;33751;50.816;-1.214;2022-11-11T00:18:40;102409.37;;;20.54;100.00
47983;BME280;33751;50.816;-1.214;2022-11-11T00:21:12;102413.67;;;20.37;100.00
47983;BME280;33751;50.816;-1.214;2022-11-11T00:23:39;102408.18;;;20.14;100.00
47983;BME280;33751;50.816;-1.214;2022-11-11T00:26:07;102408.50;;;20.33;100.00
47983;BME280;33751;50.816;-1.214;2022-11-11T00:28:34;102412.26;;;20.08;100.00
47983;BME280;33751;50.816;-1.214;2022-11-11T00:31:03;102409.42;;;20.28;100.00
47983;BME280;33751;50.816;-1.214;2022-11-11T00:33:31;102406.08;;;20.56;100.00
47983;BME280;33751;50.816;-1.214;2022-11-11T00:35:58;102404.95;;;20.58;100.00
47983;BME280;33751;50.816;-1.214;2022-11-11T00:38:25;102410.19;;;20.37;100.00
47983;BME280;33751;50.816;-1.214;2022-11-11T00:40:52;102406.84;;;20.23;100.00
47983;BME280;33751;50.816;-1.214;2022-11-11T00:43:18;102412.04;;;20.50;100.00
47983;BME280;33751;50.816;-1.214;2022-11-11T00:45:46;102412.94;;;20.28;100.00
47983;BME280;33751;50.816;-1.214;2022-11-11T00:48:13;102406.55;;;20.50;100.00
47983;BME280;33751;50.816;-1.214;2022-11-11T00:50:39;102398.40;;;19.75;100.00
47983;BME280;33751;50.816;-1.214;2022-11-11T00:53:09;102398.37;;;20.27;100.00
47983;BME280;33751;50.816;-1.214;2022-11-11T00:55:35;102401.81;;;20.05;100.00
47983;BME280;33751;50.816;-1.214;2022-11-11T00:58:02;102396.48;;;19.96;100.00
47983;BME280;33751;50.816;-1.214;2022-11-11T01:00:29;102402.23;;;19.97;100.00
47983;BME280;33751;50.816;-1.214;2022-11-11T01:02:56;102402.55;;;19.88;100.00
47983;BME280;33751;50.816;-1.214;2022-11-11T01:05:23;102405.13;;;19.94;100.00
47983;BME280;33751;50.816;-1.214;2022-11-11T01:07:50;102409.45;;;19.70;100.00
47983;BME280;33751;50.816;-1.214;2022-11-11T01:10:17;102405.35;;;19.51;100.00
47983;BME280;33751;50.816;-1.214;2022-11-11T01:12:44;102403.44;;;19.63;100.00
47983;BME280;33751;50.816;-1.214;2022-11-11T01:15:10;102414.02;;;19.89;100.00
47983;BME280;33751;50.816;-1.214;2022-11-11T01:17:37;102412.90;;;19.68;100.00
47983;BME280;33751;50.816;-1.214;2022-11-11T01:20:05;102406.04;;;19.84;100.00
47983;BME280;33751;50.816;-1.214;2022-11-11T01:22:32;102403.64;;;19.79;100.00
47983;BME280;33751;50.816;-1.214;2022-11-11T01:24:58;102412.60;;;19.79;100.00
47983;BME280;33751;50.816;-1.214;2022-11-11T01:27:26;102407.52;;;19.66;100.00
47983;BME280;33751;50.816;-1.214;2022-11-11T01:29:53;102405.88;;;19.91;100.00
47983;BME280;33751;50.816;-1.214;2022-11-11T01:32:19;102409.80;;;19.25;100.00
47983;BME280;33751;50.816;-1.214;2022-11-11T01:34:46;102412.36;;;19.70;100.00
47983;BME280;33751;50.816;-1.214;2022-11-11T01:37:12;102416.78;;;19.83;100.00
47983;BME280;33751;50.816;-1.214;2022-11-11T01:39:39;102416.37;;;19.61;100.00
47983;BME280;33751;50.816;-1.214;2022-11-11T01:42:05;102418.24;;;19.70;100.00
47983;BME280;33751;50.816;-1.214;2022-11-11T01:44:47;102409.81;;;19.44;100.00
47983;BME280;33751;50.816;-1.214;2022-11-11T01:47:14;102413.71;;;19.57;100.00
47983;BME280;33751;50.816;-1.214;2022-11-11T01:49:48;102415.78;;;19.85;100.00
47983;BME280;33751;50.816;-1.214;2022-11-11T01:52:19;102405.60;;;19.43;100.00
47983;BME280;33751;50.816;-1.214;2022-11-11T01:54:50;102405.71;;;19.72;100.00
47983;BME280;33751;50.816;-1.214;2022-11-11T01:57:23;102415.94;;;19.34;100.00
47983;BME280;33751;50.816;-1.214;2022-11-11T01:59:54;102408.87;;;19.39;100.00
47983;BME280;33751;50.816;-1.214;2022-11-11T02:02:31;102408.28;;;19.43;100.00
47983;BME280;33751;50.816;-1.214;2022-11-11T02:05:01;102409.66;;;19.23;100.00
47983;BME280;33751;50.816;-1.214;2022-11-11T02:07:29;102407.14;;;19.38;100.00
47983;BME280;33751;50.816;-1.214;2022-11-11T02:09:56;102407.98;;;19.70;100.00
47983;BME280;33751;50.816;-1.214;2022-11-11T02:12:24;102406.02;;;19.48;100.00
47983;BME280;33751;50.816;-1.214;2022-11-11T02:14:54;102405.71;;;19.48;100.00
47983;BME280;33751;50.816;-1.214;2022-11-11T02:17:24;102411.60;;;19.72;100.00
47983;BME280;33751;50.816;-1.214;2022-11-11T02:19:55;102410.24;;;19.42;100.00
47983;BME280;33751;50.816;-1.214;2022-11-11T02:22:30;102415.92;;;19.51;100.00
47983;BME280;33751;50.816;-1.214;2022-11-11T02:25:01;102421.74;;;19.50;100.00
47983;BME280;33751;50.816;-1.214;2022-11-11T02:27:30;102416.75;;;19.34;100.00
47983;BME280;33751;50.816;-1.214;2022-11-11T02:29:59;102407.89;;;19.28;100.00
47983;BME280;33751;50.816;-1.214;2022-11-11T02:32:27;102412.13;;;19.43;100.00
47983;BME280;33751;50.816;-1.214;2022-11-11T02:34:54;102408.51;;;19.05;100.00
47983;BME280;33751;50.816;-1.214;2022-11-11T02:37:26;102406.02;;;19.25;100.00
47983;BME280;33751;50.816;-1.214;2022-11-11T02:39:58;102404.81;;;19.27;100.00
47983;BME280;33751;50.816;-1.214;2022-11-11T02:42:27;102402.35;;;18.87;100.00
47983;BME280;33751;50.816;-1.214;2022-11-11T02:44:54;102394.61;;;18.93;100.00
47983;BME280;33751;50.816;-1.214;2022-11-11T02:47:21;102393.88;;;19.00;100.00
47983;BME280;33751;50.816;-1.214;2022-11-11T02:49:47;102394.30;;;18.91;100.00
47983;BME280;33751;50.816;-1.214;2022-11-11T02:52:14;102395.56;;;19.23;100.00
47983;BME280;33751;50.816;-1.214;2022-11-11T02:54:40;102392.08;;;18.97;100.00
47983;BME280;33751;50.816;-1.214;2022-11-11T02:57:07;102390.93;;;19.07;100.00
47983;BME280;33751;50.816;-1.214;2022-11-11T02:59:33;102394.92;;;19.27;100.00
47983;BME280;33751;50.816;-1.214;2022-11-11T03:02:00;102391.47;;;18.83;100.00
47983;BME280;33751;50.816;-1.214;2022-11-11T03:04:27;102390.36;;;19.40;100.00
47983;BME280;33751;50.816;-1.214;2022-11-11T03:06:54;102390.81;;;19.34;100.00
47983;BME280;33751;50.816;-1.214;2022-11-11T03:09:21;102388.32;;;19.13;100.00
47983;BME280;33751;50.816;-1.214;2022-11-11T03:11:48;102386.59;;;18.92;100.00
47983;BME280;33751;50.816;-1.214;2022-11-11T03:14:15;102394.21;;;19.25;100.00
47983;BME280;33751;50.816;-1.214;2022-11-11T03:16:42;102397.70;;;18.90;100.00
47983;BME280;33751;50.816;-1.214;2022-11-11T03:19:09;102397.05;;;18.80;100.00
47983;BME280;33751;50.816;-1.214;2022-11-11T03:21:36;102395.04;;;18.76;100.00
47983;BME280;33751;50.816;-1.214;2022-11-11T03:24:04;102392.30;;;19.27;100.00
47983;BME280;33751;50.816;-1.214;2022-11-11T03:26:31;102393.91;;;18.82;100.00
47983;BME280;33751;50.816;-1.214;2022-11-11T03:28:58;102397.78;;;19.01;100.00
47983;BME280;33751;50.816;-1.214;2022-11-11T03:31:26;102390.76;;;19.10;100.00
47983;BME280;33751;50.816;-1.214;2022-11-11T03:33:52;102393.82;;;19.04;100.00
47983;BME280;33751;50.816;-1.214;2022-11-11T03:36:19;102388.64;;;18.91;100.00
47983;BME280;33751;50.816;-1.214;2022-11-11T03:38:46;102387.38;;;19.07;100.00
47983;BME280;33751;50.816;-1.214;2022-11-11T03:41:12;102396.54;;;18.79;100.00
47983;BME280;33751;50.816;-1.214;2022-11-11T03:43:39;102397.81;;;18.86;100.00
47983;BME280;33751;50.816;-1.214;2022-11-11T03:46:06;102406.53;;;19.45;100.00
47983;BME280;33751;50.816;-1.214;2022-11-11T03:48:33;102404.90;;;18.85;100.00
47983;BME280;33751;50.816;-1.214;2022-11-11T03:50:59;102410.00;;;19.18;100.00
47983;BME280;33751;50.816;-1.214;2022-11-11T03:53:26;102398.21;;;18.52;100.00
47983;BME280;33751;50.816;-1.214;2022-11-11T03:55:53;102402.45;;;18.67;100.00
47983;BME280;33751;50.816;-1.214;2022-11-11T03:58:21;102401.76;;;19.07;100.00
47983;BME280;33751;50.816;-1.214;2022-11-11T04:00:48;102393.59;;;18.67;100.00
47983;BME280;33751;50.816;-1.214;2022-11-11T04:03:17;102394.74;;;18.84;100.00
47983;BME280;33751;50.816;-1.214;2022-11-11T04:05:44;102396.81;;;18.70;100.00
47983;BME280;33751;50.816;-1.214;2022-11-11T04:08:12;102397.58;;;18.66;100.00
47983;BME280;33751;50.816;-1.214;2022-11-11T04:10:39;102395.43;;;18.66;100.00
47983;BME280;33751;50.816;-1.214;2022-11-11T04:13:06;102396.11;;;18.78;100.00
47983;BME280;33751;50.816;-1.214;2022-11-11T04:15:34;102397.59;;;19.00;100.00
47983;BME280;33751;50.816;-1.214;2022-11-11T04:18:00;102399.22;;;18.74;100.00
47983;BME280;33751;50.816;-1.214;2022-11-11T04:20:27;102395.91;;;18.62;100.00
47983;BME280;33751;50.816;-1.214;2022-11-11T04:22:55;102400.59;;;18.57;100.00
47983;BME280;33751;50.816;-1.214;2022-11-11T04:25:22;102401.08;;;18.55;100.00
47983;BME280;33751;50.816;-1.214;2022-11-11T04:27:48;102401.51;;;19.13;100.00
47983;BME280;33751;50.816;-1.214;2022-11-11T04:30:15;102400.36;;;18.53;100.00
47983;BME280;33751;50.816;-1.214;2022-11-11T04:32:44;102399.77;;;19.01;100.00
47983;BME280;33751;50.816;-1.214;2022-11-11T04:35:12;102404.17;;;19.28;100.00
47983;BME280;33751;50.816;-1.214;2022-11-11T04:37:45;102402.35;;;19.11;100.00
47983;BME280;33751;50.816;-1.214;2022-11-11T04:40:12;102401.58;;;18.53;100.00
47983;BME280;33751;50.816;-1.214;2022-11-11T04:42:39;102402.79;;;18.85;100.00
47983;BME280;33751;50.816;-1.214;2022-11-11T04:45:06;102404.37;;;18.59;100.00
47983;BME280;33751;50.816;-1.214;2022-11-11T04:47:35;102400.68;;;18.93;100.00
47983;BME280;33751;50.816;-1.214;2022-11-11T04:50:04;102405.16;;;18.92;100.00
47983;BME280;33751;50.816;-1.214;2022-11-11T04:52:31;102404.19;;;18.43;100.00
47983;BME280;33751;50.816;-1.214;2022-11-11T04:54:58;102409.46;;;18.56;100.00
47983;BME280;33751;50.816;-1.214;2022-11-11T04:57:26;102404.33;;;18.77;100.00
47983;BME280;33751;50.816;-1.214;2022-11-11T04:59:53;102411.37;;;18.76;100.00
47983;BME280;33751;50.816;-1.214;2022-11-11T05:02:19;102409.09;;;18.94;100.00
47983;BME280;33751;50.816;-1.214;2022-11-11T05:04:46;102409.66;;;18.80;100.00
47983;BME280;33751;50.816;-1.214;2022-11-11T05:07:12;102406.78;;;18.42;100.00
47983;BME280;33751;50.816;-1.214;2022-11-11T05:09:39;102403.21;;;18.32;100.00
47983;BME280;33751;50.816;-1.214;2022-11-11T05:12:06;102405.85;;;18.70;100.00
47983;BME280;33751;50.816;-1.214;2022-11-11T05:14:33;102411.65;;;18.99;100.00
47983;BME280;33751;50.816;-1.214;2022-11-11T05:16:59;102414.95;;;18.62;100.00
47983;BME280;33751;50.816;-1.214;2022-11-11T05:19:27;102415.15;;;18.73;100.00
47983;BME280;33751;50.816;-1.214;2022-11-11T05:21:55;102417.15;;;18.60;100.00
47983;BME280;33751;50.816;-1.214;2022-11-11T05:24:22;102413.20;;;18.31;100.00
47983;BME280;33751;50.816;-1.214;2022-11-11T05:26:49;102415.36;;;18.47;100.00
47983;BME280;33751;50.816;-1.214;2022-11-11T05:29:15;102413.99;;;18.44;100.00
47983;BME280;33751;50.816;-1.214;2022-11-11T05:31:42;102417.75;;;18.29;100.00
47983;BME280;33751;50.816;-1.214;2022-11-11T05:34:09;102414.62;;;18.72;100.00
47983;BME280;33751;50.816;-1.214;2022-11-11T05:36:35;102414.25;;;18.46;100.00
47983;BME280;33751;50.816;-1.214;2022-11-11T05:39:02;102410.52;;;18.49;100.00
47983;BME280;33751;50.816;-1.214;2022-11-11T05:41:29;102411.84;;;18.60;100.00
47983;BME280;33751;50.816;-1.214;2022-11-11T05:43:56;102411.44;;;18.38;100.00
47983;BME280;33751;50.816;-1.214;2022-11-11T05:46:22;102416.74;;;18.49;100.00
47983;BME280;33751;50.816;-1.214;2022-11-11T05:48:49;102417.33;;;18.60;100.00
47983;BME280;33751;50.816;-1.214;2022-11-11T05:51:15;102420.95;;;18.32;100.00
47983;BME280;33751;50.816;-1.214;2022-11-11T05:53:43;102418.44;;;18.30;100.00
47983;BME280;33751;50.816;-1.214;2022-11-11T05:56:09;102414.64;;;18.64;100.00
47983;BME280;33751;50.816;-1.214;2022-11-11T05:58:36;102416.21;;;18.52;100.00
47983;BME280;33751;50.816;-1.214;2022-11-11T06:01:02;102412.95;;;18.79;100.00
47983;BME280;33751;50.816;-1.214;2022-11-11T06:03:29;102411.12;;;18.49;100.00
47983;BME280;33751;50.816;-1.214;2022-11-11T06:05:56;102407.72;;;18.52;100.00
47983;BME280;33751;50.816;-1.214;2022-11-11T06:08:23;102415.76;;;18.36;100.00
47983;BME280;33751;50.816;-1.214;2022-11-11T06:10:49;102414.76;;;18.17;100.00
47983;BME280;33751;50.816;-1.214;2022-11-11T06:13:16;102421.44;;;18.45;100.00
47983;BME280;33751;50.816;-1.214;2022-11-11T06:15:44;102427.17;;;18.50;100.00
47983;BME280;33751;50.816;-1.214;2022-11-11T06:18:11;102429.14;;;18.16;100.00
47983;BME280;33751;50.816;-1.214;2022-11-11T06:20:38;102431.64;;;18.49;100.00
47983;BME280;33751;50.816;-1.214;2022-11-11T06:23:05;102422.99;;;18.42;100.00
47983;BME280;33751;50.816;-1.214;2022-11-11T06:25:33;102427.48;;;18.02;100.00
47983;BME280;33751;50.816;-1.214;2022-11-11T06:28:00;102430.90;;;18.50;100.00
47983;BME280;33751;50.816;-1.214;2022-11-11T06:30:27;102433.84;;;18.51;100.00
47983;BME280;33751;50.816;-1.214;2022-11-11T06:32:53;102439.33;;;18.38;100.00
47983;BME280;33751;50.816;-1.214;2022-11-11T06:35:20;102440.45;;;18.11;100.00
47983;BME280;33751;50.816;-1.214;2022-11-11T06:37:46;102438.53;;;18.58;100.00
47983;BME280;33751;50.816;-1.214;2022-11-11T06:40:14;102438.04;;;18.54;100.00
47983;BME280;33751;50.816;-1.214;2022-11-11T06:42:41;102443.99;;;18.85;100.00
47983;BME280;33751;50.816;-1.214;2022-11-11T06:45:08;102448.48;;;18.64;100.00
47983;BME280;33751;50.816;-1.214;2022-11-11T06:47:36;102449.99;;;18.76;100.00
47983;BME280;33751;50.816;-1.214;2022-11-11T06:50:03;102453.33;;;18.53;100.00
47983;BME280;33751;50.816;-1.214;2022-11-11T06:52:30;102455.39;;;18.60;100.00
47983;BME280;33751;50.816;-1.214;2022-11-11T06:54:56;102451.74;;;18.63;100.00
47983;BME280;33751;50.816;-1.214;2022-11-11T06:57:22;102452.85;;;18.77;100.00
47983;BME280;33751;50.816;-1.214;2022-11-11T06:59:49;102452.39;;;18.55;100.00
47983;BME280;33751;50.816;-1.214;2022-11-11T07:02:16;102452.63;;;18.54;100.00
47983;BME280;33751;50.816;-1.214;2022-11-11T07:04:43;102450.51;;;18.47;100.00
47983;BME280;33751;50.816;-1.214;2022-11-11T07:07:09;102453.35;;;18.60;100.00
47983;BME280;33751;50.816;-1.214;2022-11-11T07:09:36;102457.87;;;18.35;100.00
47983;BME280;33751;50.816;-1.214;2022-11-11T07:12:02;102453.24;;;18.43;100.00
47983;BME280;33751;50.816;-1.214;2022-11-11T07:14:29;102451.93;;;18.49;100.00
47983;BME280;33751;50.816;-1.214;2022-11-11T07:16:56;102454.79;;;18.20;100.00
47983;BME280;33751;50.816;-1.214;2022-11-11T07:19:23;102455.77;;;18.26;100.00
47983;BME280;33751;50.816;-1.214;2022-11-11T07:21:49;102458.43;;;18.43;100.00
47983;BME280;33751;50.816;-1.214;2022-11-11T07:24:16;102465.48;;;18.19;100.00
47983;BME280;33751;50.816;-1.214;2022-11-11T07:26:43;102462.85;;;18.26;100.00
47983;BME280;33751;50.816;-1.214;2022-11-11T07:29:10;102460.05;;;18.27;100.00
47983;BME280;33751;50.816;-1.214;2022-11-11T07:31:37;102461.91;;;18.25;100.00
47983;BME280;33751;50.816;-1.214;2022-11-11T07:34:04;102472.33;;;18.45;100.00
47983;BME280;33751;50.816;-1.214;2022-11-11T07:36:31;102467.36;;;18.86;100.00
47983;BME280;33751;50.816;-1.214;2022-11-11T07:38:57;102468.64;;;18.26;100.00
47983;BME280;33751;50.816;-1.214;2022-11-11T07:41:25;102467.76;;;18.70;100.00
47983;BME280;33751;50.816;-1.214;2022-11-11T07:43:51;102476.01;;;18.39;100.00
47983;BME280;33751;50.816;-1.214;2022-11-11T07:46:18;102477.73;;;18.39;100.00
47983;BME280;33751;50.816;-1.214;2022-11-11T07:48:45;102485.05;;;18.67;100.00
47983;BME280;33751;50.816;-1.214;2022-11-11T07:51:11;102489.58;;;18.22;100.00
47983;BME280;33751;50.816;-1.214;2022-11-11T07:53:39;102493.78;;;18.53;100.00
47983;BME280;33751;50.816;-1.214;2022-11-11T07:56:05;102500.38;;;18.65;100.00
47983;BME280;33751;50.816;-1.214;2022-11-11T07:58:32;102503.54;;;18.41;100.00
47983;BME280;33751;50.816;-1.214;2022-11-11T08:00:59;102504.97;;;18.67;100.00
47983;BME280;33751;50.816;-1.214;2022-11-11T08:03:26;102508.70;;;18.42;100.00
47983;BME280;33751;50.816;-1.214;2022-11-11T08:05:54;102512.50;;;18.46;100.00
47983;BME280;33751;50.816;-1.214;2022-11-11T08:08:21;102514.67;;;18.30;100.00
47983;BME280;33751;50.816;-1.214;2022-11-11T08:10:49;102516.84;;;18.26;100.00
47983;BME280;33751;50.816;-1.214;2022-11-11T08:13:15;102516.86;;;18.41;100.00
47983;BME280;33751;50.816;-1.214;2022-11-11T08:15:42;102516.58;;;18.44;100.00
47983;BME280;33751;50.816;-1.214;2022-11-11T08:18:09;102518.98;;;18.34;100.00
47983;BME280;33751;50.816;-1.214;2022-11-11T08:20:36;102525.92;;;18.73;100.00
47983;BME280;33751;50.816;-1.214;2022-11-11T08:23:03;102534.35;;;18.61;100.00
47983;BME280;33751;50.816;-1.214;2022-11-11T08:25:31;102538.79;;;18.49;100.00
47983;BME280;33751;50.816;-1.214;2022-11-11T08:27:58;102540.18;;;18.45;100.00
47983;BME280;33751;50.816;-1.214;2022-11-11T08:30:25;102542.12;;;18.53;100.00
47983;BME280;33751;50.816;-1.214;2022-11-11T08:32:56;102545.20;;;18.29;100.00
47983;BME280;33751;50.816;-1.214;2022-11-11T08:35:23;102543.39;;;18.67;100.00
47983;BME280;33751;50.816;-1.214;2022-11-11T08:37:49;102541.79;;;18.45;100.00
47983;BME280;33751;50.816;-1.214;2022-11-11T08:40:16;102544.52;;;18.41;100.00
47983;BME280;33751;50.816;-1.214;2022-11-11T08:42:44;102550.99;;;18.20;100.00
47983;BME280;33751;50.816;-1.214;2022-11-11T08:45:11;102553.77;;;18.35;100.00
47983;BME280;33751;50.816;-1.214;2022-11-11T08:47:38;102554.19;;;18.38;100.00
47983;BME280;33751;50.816;-1.214;2022-11-11T08:50:06;102551.15;;;18.44;100.00
47983;BME280;33751;50.816;-1.214;2022-11-11T08:52:33;102553.98;;;18.08;100.00
47983;BME280;33751;50.816;-1.214;2022-11-11T08:55:01;102558.90;;;18.42;100.00
47983;BME280;33751;50.816;-1.214;2022-11-11T08:57:27;102555.81;;;18.39;100.00
47983;BME280;33751;50.816;-1.214;2022-11-11T08:59:53;102555.50;;;18.88;100.00
47983;BME280;33751;50.816;-1.214;2022-11-11T09:02:20;102554.80;;;18.63;100.00
47983;BME280;33751;50.816;-1.214;2022-11-11T09:04:47;102556.09;;;18.20;100.00
47983;BME280;33751;50.816;-1.214;2022-11-11T09:07:13;102559.48;;;18.63;100.00
47983;BME280;33751;50.816;-1.214;2022-11-11T09:09:40;102554.12;;;18.33;100.00
47983;BME280;33751;50.816;-1.214;2022-11-11T09:12:07;102554.88;;;18.71;100.00
47983;BME280;33751;50.816;-1.214;2022-11-11T09:14:34;102554.12;;;18.42;100.00
47983;BME280;33751;50.816;-1.214;2022-11-11T09:17:00;102559.85;;;18.40;100.00
47983;BME280;33751;50.816;-1.214;2022-11-11T09:19:26;102558.78;;;18.95;100.00
47983;BME280;33751;50.816;-1.214;2022-11-11T09:21:53;102563.89;;;19.12;100.00
47983;BME280;33751;50.816;-1.214;2022-11-11T09:24:20;102565.58;;;18.86;100.00
47983;BME280;33751;50.816;-1.214;2022-11-11T09:26:47;102567.07;;;18.80;100.00
47983;BME280;33751;50.816;-1.214;2022-11-11T09:29:13;102572.92;;;18.88;100.00
47983;BME280;33751;50.816;-1.214;2022-11-11T09:31:41;102568.28;;;19.02;100.00
47983;BME280;33751;50.816;-1.214;2022-11-11T09:34:08;102580.12;;;18.40;100.00
47983;BME280;33751;50.816;-1.214;2022-11-11T09:36:34;102574.54;;;18.60;100.00
47983;BME280;33751;50.816;-1.214;2022-11-11T09:39:02;102572.68;;;18.13;100.00
47983;BME280;33751;50.816;-1.214;2022-11-11T09:41:36;102581.35;;;18.61;100.00
47983;BME280;33751;50.816;-1.214;2022-11-11T09:44:21;102578.53;;;18.65;100.00
47983;BME280;33751;50.816;-1.214;2022-11-11T09:46:56;102579.89;;;18.48;100.00
47983;BME280;33751;50.816;-1.214;2022-11-11T09:49:40;102589.21;;;18.88;100.00
47983;BME280;33751;50.816;-1.214;2022-11-11T09:52:16;102591.53;;;18.71;100.00
47983;BME280;33751;50.816;-1.214;2022-11-11T09:54:49;102593.72;;;18.22;100.00
47983;BME280;33751;50.816;-1.214;2022-11-11T09:57:23;102591.20;;;18.65;100.00
47983;BME280;33751;50.816;-1.214;2022-11-11T09:59:55;102599.75;;;18.66;100.00
47983;BME280;33751;50.816;-1.214;2022-11-11T10:02:31;102604.84;;;18.56;100.00
47983;BME280;33751;50.816;-1.214;2022-11-11T10:05:05;102606.12;;;18.43;100.00
47983;BME280;33751;50.816;-1.214;2022-11-11T10:07:39;102606.43;;;18.75;100.00
47983;BME280;33751;50.816;-1.214;2022-11-11T10:10:16;102611.09;;;18.37;100.00
47983;BME280;33751;50.816;-1.214;2022-11-11T10:12:49;102618.64;;;18.70;100.00
47983;BME280;33751;50.816;-1.214;2022-11-11T10:15:21;102620.45;;;18.21;100.00
47983;BME280;33751;50.816;-1.214;2022-11-11T10:18:00;102625.55;;;18.73;100.00
47983;BME280;33751;50.816;-1.214;2022-11-11T10:20:34;102629.91;;;18.35;100.00
47983;BME280;33751;50.816;-1.214;2022-11-11T10:20:39;102628.58;;;18.29;100.00
47983;BME280;33751;50.816;-1.214;2022-11-11T10:23:13;102632.02;;;18.81;100.00
47983;BME280;33751;50.816;-1.214;2022-11-11T10:25:46;102637.90;;;18.55;100.00
47983;BME280;33751;50.816;-1.214;2022-11-11T10:28:19;102636.80;;;18.62;100.00
47983;BME280;33751;50.816;-1.214;2022-11-11T10:30:47;102639.69;;;18.16;100.00
47983;BME280;33751;50.816;-1.214;2022-11-11T10:33:19;102646.13;;;18.91;100.00
47983;BME280;33751;50.816;-1.214;2022-11-11T10:35:49;102645.99;;;18.46;100.00
47983;BME280;33751;50.816;-1.214;2022-11-11T10:38:27;102646.30;;;18.49;100.00
47983;BME280;33751;50.816;-1.214;2022-11-11T10:41:08;102640.53;;;18.96;100.00
47983;BME280;33751;50.816;-1.214;2022-11-11T10:43:36;102646.41;;;18.62;100.00
47983;BME280;33751;50.816;-1.214;2022-11-11T10:46:07;102653.46;;;19.01;100.00
47983;BME280;33751;50.816;-1.214;2022-11-11T10:48:45;102652.46;;;19.05;100.00
47983;BME280;33751;50.816;-1.214;2022-11-11T10:51:16;102653.86;;;18.97;100.00
47983;BME280;33751;50.816;-1.214;2022-11-11T10:53:52;102656.19;;;18.87;100.00
47983;BME280;33751;50.816;-1.214;2022-11-11T10:56:24;102656.78;;;18.60;100.00
47983;BME280;33751;50.816;-1.214;2022-11-11T10:58:59;102659.78;;;18.92;100.00
47983;BME280;33751;50.816;-1.214;2022-11-11T11:01:31;102659.71;;;19.50;100.00
47983;BME280;33751;50.816;-1.214;2022-11-11T11:04:03;102659.40;;;19.17;100.00
47983;BME280;33751;50.816;-1.214;2022-11-11T11:06:34;102659.18;;;19.74;100.00
47983;BME280;33751;50.816;-1.214;2022-11-11T11:09:11;102654.92;;;19.53;100.00
47983;BME280;33751;50.816;-1.214;2022-11-11T11:11:45;102656.43;;;19.30;100.00
47983;BME280;33751;50.816;-1.214;2022-11-11T11:14:19;102660.88;;;19.37;100.00
47983;BME280;33751;50.816;-1.214;2022-11-11T11:16:49;102662.72;;;19.06;100.00
47983;BME280;33751;50.816;-1.214;2022-11-11T11:19:19;102663.26;;;19.04;100.00
47983;BME280;33751;50.816;-1.214;2022-11-11T11:21:50;102660.39;;;18.97;100.00
47983;BME280;33751;50.816;-1.214;2022-11-11T11:24:19;102660.28;;;18.86;100.00
47983;BME280;33751;50.816;-1.214;2022-11-11T11:26:49;102659.14;;;19.06;100.00
47983;BME280;33751;50.816;-1.214;2022-11-11T11:29:24;102657.88;;;19.27;100.00
47983;BME280;33751;50.816;-1.214;2022-11-11T11:31:51;102656.91;;;19.13;100.00
47983;BME280;33751;50.816;-1.214;2022-11-11T11:34:18;102656.15;;;19.41;100.00
47983;BME280;33751;50.816;-1.214;2022-11-11T11:36:58;102648.59;;;19.30;100.00
47983;BME280;33751;50.816;-1.214;2022-11-11T11:39:33;102647.62;;;19.51;100.00
47983;BME280;33751;50.816;-1.214;2022-11-11T11:42:01;102654.63;;;19.57;100.00
47983;BME280;33751;50.816;-1.214;2022-11-11T11:44:31;102649.48;;;19.56;100.00
47983;BME280;33751;50.816;-1.214;2022-11-11T11:47:08;102650.79;;;19.84;100.00
47983;BME280;33751;50.816;-1.214;2022-11-11T11:50:03;102654.92;;;19.55;100.00
47983;BME280;33751;50.816;-1.214;2022-11-11T11:52:40;102663.21;;;20.06;100.00
47983;BME280;33751;50.816;-1.214;2022-11-11T11:55:15;102660.62;;;19.52;100.00
47983;BME280;33751;50.816;-1.214;2022-11-11T11:57:54;102661.76;;;19.49;100.00
47983;BME280;33751;50.816;-1.214;2022-11-11T12:00:23;102656.12;;;20.04;100.00
47983;BME280;33751;50.816;-1.214;2022-11-11T12:03:10;102657.61;;;19.70;100.00
47983;BME280;33751;50.816;-1.214;2022-11-11T12:05:43;102656.54;;;20.37;100.00
47983;BME280;33751;50.816;-1.214;2022-11-11T12:08:25;102652.41;;;20.66;100.00
47983;BME280;33751;50.816;-1.214;2022-11-11T12:11:02;102654.79;;;20.22;100.00
47983;BME280;33751;50.816;-1.214;2022-11-11T12:13:40;102651.08;;;20.32;100.00
47983;BME280;33751;50.816;-1.214;2022-11-11T12:16:20;102646.76;;;20.38;100.00
47983;BME280;33751;50.816;-1.214;2022-11-11T12:19:05;102649.66;;;20.58;100.00
47983;BME280;33751;50.816;-1.214;2022-11-11T12:21:40;102644.42;;;20.82;100.00
47983;BME280;33751;50.816;-1.214;2022-11-11T12:24:26;102645.35;;;20.86;100.00
47983;BME280;33751;50.816;-1.214;2022-11-11T12:27:06;102645.76;;;20.70;100.00
47983;BME280;33751;50.816;-1.214;2022-11-11T12:29:51;102644.50;;;20.91;100.00
47983;BME280;33751;50.816;-1.214;2022-11-11T12:32:36;102639.90;;;20.83;100.00
47983;BME280;33751;50.816;-1.214;2022-11-11T12:35:24;102635.79;;;21.10;100.00
47983;BME280;33751;50.816;-1.214;2022-11-11T12:38:01;102635.40;;;21.21;100.00